Wetterdaten: Woche 02.01.17 - 08.01.17 (KW1)
Datum Zeit Temp. A. Feuchte A. Luftdruck Regen Wind Richtung Taupunkt Windchill Windben
02.01.2017 00:00 -0,7 C 91 % 1021,6 hPa 0,0 l/m 1,0 km/h (0 Bft) O-SO -2,0 C -0,7 C 3,4 km/h (1 Bft)
02.01.2017 01:00 -1,7 C 94 % 1021,3 hPa 0,0 l/m 2,0 km/h (1 Bft) N-NO -2,5 C -1,7 C 5,5 km/h (2 Bft)
02.01.2017 02:00 -1,8 C 95 % 1021,3 hPa 0,0 l/m 0,2 km/h (0 Bft) O-NO -2,6 C -1,8 C 1,6 km/h (1 Bft)
02.01.2017 03:00 -1,6 C 96 % 1021,1 hPa 0,0 l/m 0,8 km/h (0 Bft) N-NO -2,1 C -1,6 C 3,1 km/h (1 Bft)
02.01.2017 04:00 -0,9 C 95 % 1021,0 hPa 0,0 l/m 1,8 km/h (1 Bft) O -1,5 C -0,9 C 5,3 km/h (1 Bft)
02.01.2017 05:00 -1,1 C 94 % 1021,1 hPa 0,0 l/m 3,6 km/h (1 Bft) O-NO -1,9 C -1,1 C 8,6 km/h (2 Bft)
02.01.2017 06:00 -1,3 C 94 % 1021,3 hPa 0,0 l/m 1,8 km/h (1 Bft) O-NO -2,1 C -1,3 C 5,3 km/h (1 Bft)
02.01.2017 07:00 -1,4 C 94 % 1021,4 hPa 0,0 l/m 2,3 km/h (1 Bft) O-NO -2,2 C -1,4 C 6,3 km/h (2 Bft)
02.01.2017 08:00 -1,6 C 95 % 1021,7 hPa 0,0 l/m 2,6 km/h (1 Bft) O -2,3 C -1,6 C 6,3 km/h (2 Bft)
02.01.2017 09:00 -1,4 C 93 % 1021,8 hPa 0,0 l/m 3,2 km/h (1 Bft) O-NO -2,3 C -1,4 C 8,7 km/h (2 Bft)
02.01.2017 10:00 -1,2 C 93 % 1021,9 hPa 0,0 l/m 3,9 km/h (1 Bft) NO -2,2 C -1,2 C 9,3 km/h (2 Bft)
02.01.2017 11:00 -0,7 C 92 % 1021,8 hPa 0,0 l/m 3,8 km/h (1 Bft) O -1,8 C -0,7 C 8,4 km/h (2 Bft)
02.01.2017 12:00 -0,7 C 93 % 1021,7 hPa 0,0 l/m 2,8 km/h (1 Bft) NO -1,8 C -0,8 C 6,6 km/h (2 Bft)
02.01.2017 13:00 -0,4 C 91 % 1022,0 hPa 0,0 l/m 2,1 km/h (1 Bft) O -1,6 C -0,4 C 7,2 km/h (2 Bft)
02.01.2017 14:00 -0,5 C 89 % 1022,1 hPa 0,0 l/m 3,0 km/h (1 Bft) NO -2,1 C -0,5 C 9,0 km/h (2 Bft)
02.01.2017 15:00 -0,7 C 89 % 1022,7 hPa 0,0 l/m 1,5 km/h (1 Bft) O-NO -2,4 C -0,7 C 4,5 km/h (1 Bft)
02.01.2017 16:00 -1,2 C 91 % 1023,4 hPa 0,0 l/m 1,2 km/h (1 Bft) SO -2,5 C -1,2 C 4,1 km/h (1 Bft)
02.01.2017 17:00 -1,7 C 93 % 1023,8 hPa 0,0 l/m 0,4 km/h (0 Bft) O -2,7 C -1,7 C 2,1 km/h (1 Bft)
02.01.2017 18:00 -2,0 C 93 % 1024,2 hPa 0,0 l/m 0,3 km/h (0 Bft) O-NO -3,0 C -2,0 C 1,6 km/h (1 Bft)
02.01.2017 19:00 -2,4 C 94 % 1024,8 hPa 0,0 l/m 0,7 km/h (0 Bft) O -3,2 C -2,4 C 2,8 km/h (1 Bft)
02.01.2017 20:00 -2,6 C 94 % 1025,4 hPa 0,0 l/m 0,4 km/h (0 Bft) O-SO -3,4 C -2,6 C 2,5 km/h (1 Bft)
02.01.2017 21:00 -2,7 C 95 % 1026,0 hPa 0,0 l/m 0,2 km/h (0 Bft) O-SO -3,4 C -2,7 C 1,6 km/h (1 Bft)
02.01.2017 22:00 -2,6 C 95 % 1026,4 hPa 0,0 l/m 0,1 km/h (0 Bft) O-SO -3,2 C -2,6 C 0,7 km/h (0 Bft)
02.01.2017 23:00 -2,3 C 95 % 1026,8 hPa 0,0 l/m 0,2 km/h (0 Bft) O-SO -3,0 C -2,3 C 1,2 km/h (1 Bft)
03.01.2017 00:00 -2,3 C 94 % 1027,0 hPa 0,0 l/m 0,2 km/h (0 Bft) O-SO -3,1 C -2,3 C 1,0 km/h (0 Bft)
03.01.2017 01:00 -3,5 C 93 % 1027,0 hPa 0,0 l/m 0,2 km/h (0 Bft) O-SO -4,5 C -3,5 C 0,9 km/h (0 Bft)
03.01.2017 02:00 -5,0 C 94 % 1027,4 hPa 0,0 l/m 0,1 km/h (0 Bft) O-SO -5,8 C -5,0 C 0,7 km/h (0 Bft)
03.01.2017 03:00 -6,3 C 94 % 1027,9 hPa 0,0 l/m 0,1 km/h (0 Bft) O-SO -7,1 C -6,3 C 0,5 km/h (0 Bft)
03.01.2017 04:00 -6,2 C 96 % 1028,0 hPa 0,0 l/m 0,0 km/h (0 Bft) O-SO -6,8 C -6,2 C 0,4 km/h (0 Bft)
03.01.2017 05:00 -5,4 C 95 % 1028,4 hPa 0,0 l/m 0,0 km/h (0 Bft) O-SO -6,1 C -5,4 C 0,2 km/h (0 Bft)
03.01.2017 06:00 -5,3 C 95 % 1028,6 hPa 0,0 l/m 0,0 km/h (0 Bft) O-SO -5,9 C -5,3 C 0,1 km/h (0 Bft)
03.01.2017 07:00 -5,0 C 95 % 1029,0 hPa 0,0 l/m 0,1 km/h (0 Bft) O-SO -5,6 C -5,0 C 0,7 km/h (0 Bft)
03.01.2017 08:00 -5,8 C 94 % 1029,2 hPa 0,0 l/m 0,1 km/h (0 Bft) O-SO -6,6 C -5,8 C 0,5 km/h (0 Bft)
03.01.2017 09:00 -5,1 C 95 % 1029,1 hPa 0,0 l/m 0,2 km/h (0 Bft) O-SO -5,7 C -5,1 C 0,8 km/h (0 Bft)
03.01.2017 10:00 -2,2 C 91 % 1029,5 hPa 0,3 l/m 0,9 km/h (0 Bft) O-SO -3,4 C -2,2 C 2,3 km/h (1 Bft)
03.01.2017 11:00 0,8 C 79 % 1028,9 hPa 0,3 l/m 2,3 km/h (1 Bft) O -2,4 C 0,8 C 5,8 km/h (2 Bft)
03.01.2017 12:00 1,9 C 73 % 1028,5 hPa 0,0 l/m 3,0 km/h (1 Bft) NO -2,3 C 1,9 C 5,2 km/h (1 Bft)
03.01.2017 13:00 1,5 C 73 % 1028,0 hPa 0,0 l/m 3,1 km/h (1 Bft) O-NO -2,7 C 1,5 C 5,2 km/h (1 Bft)
03.01.2017 14:00 0,7 C 80 % 1027,6 hPa 0,0 l/m 4,0 km/h (1 Bft) O-NO -2,4 C 0,6 C 7,2 km/h (2 Bft)
03.01.2017 15:00 0,5 C 79 % 1027,5 hPa 0,0 l/m 3,7 km/h (1 Bft) O-NO -2,7 C 0,5 C 6,4 km/h (2 Bft)
03.01.2017 16:00 -1,1 C 83 % 1027,3 hPa 0,0 l/m 2,8 km/h (1 Bft) NO -3,6 C -1,1 C 5,0 km/h (1 Bft)
03.01.2017 17:00 -2,2 C 87 % 1027,2 hPa 0,0 l/m 1,7 km/h (1 Bft) O -4,1 C -2,2 C 3,4 km/h (1 Bft)
03.01.2017 18:00 -2,5 C 89 % 1027,1 hPa 0,0 l/m 3,6 km/h (1 Bft) NO -4,1 C -2,5 C 7,3 km/h (2 Bft)
03.01.2017 19:00 -2,9 C 91 % 1027,2 hPa 0,0 l/m 4,1 km/h (1 Bft) NO -4,2 C -2,9 C 8,9 km/h (2 Bft)
03.01.2017 20:00 -3,0 C 90 % 1026,8 hPa 0,0 l/m 2,6 km/h (1 Bft) NO -4,4 C -3,0 C 6,7 km/h (2 Bft)
03.01.2017 21:00 -3,2 C 88 % 1026,1 hPa 0,0 l/m 2,3 km/h (1 Bft) O-SO -4,9 C -3,2 C 6,4 km/h (2 Bft)
03.01.2017 22:00 -3,3 C 87 % 1025,9 hPa 0,0 l/m 2,5 km/h (1 Bft) O-NO -5,1 C -3,3 C 7,2 km/h (2 Bft)
03.01.2017 23:00 -3,1 C 86 % 1025,2 hPa 0,0 l/m 4,1 km/h (1 Bft) O-NO -5,1 C -3,2 C 9,9 km/h (2 Bft)
04.01.2017 00:00 -3,8 C 89 % 1024,7 hPa 0,0 l/m 5,0 km/h (1 Bft) O-NO -5,4 C -3,9 C 11,4 km/h (2 Bft)
04.01.2017 01:00 -3,8 C 92 % 1023,7 hPa 0,0 l/m 3,1 km/h (1 Bft) NO -4,9 C -3,8 C 9,3 km/h (2 Bft)
04.01.2017 02:00 -2,1 C 88 % 1022,7 hPa 0,0 l/m 7,1 km/h (2 Bft) O-NO -3,9 C -3,4 C 18,6 km/h (3 Bft)
04.01.2017 03:00 -1,0 C 82 % 1022,1 hPa 0,0 l/m 10,6 km/h (2 Bft) O -3,7 C -5,1 C 24,9 km/h (4 Bft)
04.01.2017 04:00 -1,4 C 86 % 1021,5 hPa 0,0 l/m 8,0 km/h (2 Bft) NO -3,4 C -3,1 C 20,5 km/h (4 Bft)
04.01.2017 05:00 -2,0 C 93 % 1020,3 hPa 0,0 l/m 5,7 km/h (2 Bft) O-NO -3,0 C -2,7 C 12,9 km/h (3 Bft)
04.01.2017 06:00 -1,8 C 93 % 1019,8 hPa 0,0 l/m 4,8 km/h (1 Bft) O-NO -2,7 C -1,8 C 11,9 km/h (2 Bft)
04.01.2017 07:00 -1,8 C 93 % 1019,5 hPa 0,0 l/m 6,9 km/h (2 Bft) O-NO -2,8 C -2,6 C 19,9 km/h (4 Bft)
04.01.2017 08:00 -1,8 C 94 % 1019,6 hPa 0,0 l/m 5,4 km/h (1 Bft) NO -2,7 C -1,8 C 14,2 km/h (3 Bft)
04.01.2017 09:00 -1,6 C 94 % 1019,4 hPa 0,0 l/m 4,8 km/h (1 Bft) NO -2,5 C -1,9 C 13,3 km/h (3 Bft)
04.01.2017 10:00 -1,3 C 92 % 1019,2 hPa 0,0 l/m 7,3 km/h (2 Bft) NO -2,4 C -2,5 C 19,7 km/h (3 Bft)
04.01.2017 11:00 -1,3 C 93 % 1018,8 hPa 0,0 l/m 8,5 km/h (2 Bft) O-NO -2,2 C -3,5 C 18,0 km/h (3 Bft)
04.01.2017 12:00 -1,4 C 94 % 1018,5 hPa 0,0 l/m 10,1 km/h (2 Bft) O-NO -2,2 C -5,0 C 18,9 km/h (3 Bft)
04.01.2017 13:00 -1,7 C 95 % 1017,8 hPa 0,0 l/m 9,1 km/h (2 Bft) O-NO -2,5 C -4,5 C 20,5 km/h (4 Bft)
04.01.2017 14:00 -1,8 C 95 % 1017,6 hPa 0,0 l/m 7,3 km/h (2 Bft) NO -2,5 C -2,8 C 16,8 km/h (3 Bft)
04.01.2017 15:00 -1,9 C 95 % 1017,8 hPa 0,0 l/m 7,0 km/h (2 Bft) O-NO -2,6 C -2,7 C 16,6 km/h (3 Bft)
04.01.2017 16:00 -2,2 C 96 % 1018,1 hPa 0,0 l/m 5,6 km/h (2 Bft) O -2,8 C -2,3 C 13,6 km/h (3 Bft)
04.01.2017 17:00 -2,1 C 96 % 1018,3 hPa 0,0 l/m 5,0 km/h (1 Bft) O-NO -2,7 C -2,2 C 10,6 km/h (2 Bft)
04.01.2017 18:00 -2,0 C 96 % 1018,4 hPa 0,0 l/m 3,8 km/h (1 Bft) O -2,5 C -2,0 C 7,9 km/h (2 Bft)
04.01.2017 19:00 -1,7 C 96 % 1018,9 hPa 0,0 l/m 3,7 km/h (1 Bft) O-NO -2,3 C -1,7 C 10,3 km/h (2 Bft)
04.01.2017 20:00 -1,5 C 95 % 1019,3 hPa 0,0 l/m 2,9 km/h (1 Bft) O-NO -2,2 C -1,6 C 8,3 km/h (2 Bft)
04.01.2017 21:00 -1,2 C 95 % 1019,4 hPa 0,0 l/m 3,6 km/h (1 Bft) O-NO -1,9 C -1,2 C 9,9 km/h (2 Bft)
04.01.2017 22:00 -1,1 C 95 % 1019,4 hPa 0,0 l/m 4,9 km/h (1 Bft) O-NO -1,8 C -1,2 C 14,5 km/h (3 Bft)
04.01.2017 23:00 -1,2 C 95 % 1019,7 hPa 0,0 l/m 5,3 km/h (1 Bft) O -1,9 C -1,2 C 14,5 km/h (3 Bft)
05.01.2017 00:00 -1,3 C 95 % 1020,3 hPa 0,0 l/m 3,5 km/h (1 Bft) O -2,0 C -1,3 C 7,9 km/h (2 Bft)
05.01.2017 01:00 -1,4 C 96 % 1021,0 hPa 0,0 l/m 0,8 km/h (0 Bft) O -2,0 C -1,4 C 3,3 km/h (1 Bft)
05.01.2017 02:00 -1,8 C 96 % 1021,7 hPa 0,0 l/m 0,5 km/h (0 Bft) SO -2,4 C -1,8 C 2,7 km/h (1 Bft)
05.01.2017 03:00 -2,6 C 94 % 1022,3 hPa 0,0 l/m 1,4 km/h (1 Bft) O -3,4 C -2,6 C 4,0 km/h (1 Bft)
05.01.2017 04:00 -3,7 C 93 % 1023,1 hPa 0,0 l/m 0,9 km/h (0 Bft) O-NO -4,7 C -3,7 C 3,5 km/h (1 Bft)
05.01.2017 05:00 -5,1 C 93 % 1024,0 hPa 0,0 l/m 0,1 km/h (0 Bft) O -6,0 C -5,1 C 1,0 km/h (0 Bft)
05.01.2017 06:00 -5,6 C 94 % 1024,3 hPa 0,0 l/m 0,1 km/h (0 Bft) O -6,3 C -5,6 C 0,7 km/h (0 Bft)
05.01.2017 07:00 -5,9 C 95 % 1024,5 hPa 0,0 l/m 0,0 km/h (0 Bft) O -6,6 C -5,9 C 0,7 km/h (0 Bft)
05.01.2017 08:00 -5,9 C 95 % 1025,0 hPa 0,0 l/m 0,0 km/h (0 Bft) O -6,6 C -5,9 C 0,0 km/h (0 Bft)
05.01.2017 09:00 -4,9 C 96 % 1025,7 hPa 0,0 l/m 0,1 km/h (0 Bft) O -5,4 C -4,9 C 0,7 km/h (0 Bft)
05.01.2017 10:00 -2,9 C 95 % 1026,4 hPa 0,0 l/m 1,1 km/h (0 Bft) O-NO -3,7 C -2,9 C 3,2 km/h (1 Bft)
05.01.2017 11:00 -1,2 C 88 % 1026,7 hPa 0,0 l/m 2,1 km/h (1 Bft) NO -2,9 C -1,2 C 5,9 km/h (2 Bft)
05.01.2017 12:00 -1,0 C 85 % 1026,9 hPa 0,0 l/m 3,1 km/h (1 Bft) N-NO -3,1 C -1,0 C 6,3 km/h (2 Bft)
05.01.2017 13:00 -1,7 C 82 % 1027,5 hPa 0,5 l/m 2,9 km/h (1 Bft) O-NO -4,3 C -1,7 C 7,4 km/h (2 Bft)
05.01.2017 14:00 -2,5 C 83 % 1028,2 hPa 1,0 l/m 1,5 km/h (1 Bft) O-NO -5,0 C -2,5 C 4,3 km/h (1 Bft)
05.01.2017 15:00 -1,8 C 81 % 1029,1 hPa 1,3 l/m 1,9 km/h (1 Bft) O-NO -4,7 C -1,8 C 5,1 km/h (1 Bft)
05.01.2017 16:00 -4,2 C 86 % 1030,0 hPa 0,3 l/m 1,2 km/h (1 Bft) N-NO -6,2 C -4,2 C 3,9 km/h (1 Bft)
05.01.2017 17:00 -6,3 C 91 % 1031,5 hPa 0,0 l/m 0,2 km/h (0 Bft) N-NO -7,5 C -6,3 C 1,5 km/h (1 Bft)
05.01.2017 18:00 -6,8 C 92 % 1032,3 hPa 0,0 l/m 0,4 km/h (0 Bft) N-NO -7,9 C -6,8 C 2,2 km/h (1 Bft)
05.01.2017 19:00 -8,2 C 92 % 1033,4 hPa 0,0 l/m 0,2 km/h (0 Bft) N-NO -9,3 C -8,2 C 1,2 km/h (1 Bft)
05.01.2017 20:00 -9,7 C 91 % 1034,2 hPa 0,0 l/m 0,0 km/h (0 Bft) N-NO -10,8 C -9,7 C 0,1 km/h (0 Bft)
05.01.2017 21:00 -10,7 C 92 % 1035,0 hPa 0,0 l/m 0,0 km/h (0 Bft) N-NO -11,8 C -10,7 C 0,3 km/h (0 Bft)
05.01.2017 22:00 -11,9 C 91 % 1035,7 hPa 0,0 l/m 0,1 km/h (0 Bft) N-NO -13,0 C -11,9 C 0,4 km/h (0 Bft)
05.01.2017 23:00 -12,6 C 91 % 1036,3 hPa 0,0 l/m 0,1 km/h (0 Bft) N-NO -13,8 C -12,6 C 1,1 km/h (0 Bft)
06.01.2017 00:00 -12,6 C 91 % 1037,1 hPa 0,0 l/m 0,0 km/h (0 Bft) N-NO -13,7 C -12,6 C 0,6 km/h (0 Bft)
06.01.2017 01:00 -11,7 C 92 % 1037,8 hPa 0,0 l/m 0,1 km/h (0 Bft) N-NO -12,7 C -11,7 C 1,6 km/h (1 Bft)
06.01.2017 02:00 -11,2 C 92 % 1038,0 hPa 0,0 l/m 0,0 km/h (0 Bft) N-NO -12,2 C -11,2 C 0,5 km/h (0 Bft)
06.01.2017 03:00 -11,3 C 91 % 1038,1 hPa 0,0 l/m 0,2 km/h (0 Bft) N-NO -12,5 C -11,3 C 1,2 km/h (1 Bft)
06.01.2017 04:00 -11,4 C 92 % 1038,6 hPa 0,0 l/m 0,0 km/h (0 Bft) N-NO -12,4 C -11,4 C 0,3 km/h (0 Bft)
06.01.2017 05:00 -10,3 C 92 % 1038,9 hPa 0,0 l/m 0,2 km/h (0 Bft) N-NO -11,3 C -10,3 C 1,4 km/h (1 Bft)
06.01.2017 06:00 -10,5 C 91 % 1039,2 hPa 0,0 l/m 0,0 km/h (0 Bft) N-NO -11,6 C -10,5 C 0,2 km/h (0 Bft)
06.01.2017 07:00 -10,3 C 92 % 1039,8 hPa 0,0 l/m 0,1 km/h (0 Bft) N-NO -11,3 C -10,3 C 1,2 km/h (1 Bft)
06.01.2017 08:00 -9,3 C 93 % 1040,4 hPa 0,0 l/m 0,9 km/h (0 Bft) W -10,3 C -9,3 C 3,7 km/h (1 Bft)
06.01.2017 09:00 -9,1 C 92 % 1041,0 hPa 0,0 l/m 2,3 km/h (1 Bft) NW -10,2 C -9,1 C 6,0 km/h (2 Bft)
06.01.2017 10:00 -8,9 C 92 % 1041,6 hPa 0,0 l/m 1,9 km/h (1 Bft) S-SW -10,0 C -8,9 C 4,9 km/h (1 Bft)
06.01.2017 11:00 -8,3 C 90 % 1041,3 hPa 0,0 l/m 1,7 km/h (1 Bft) W-NW -9,6 C -8,3 C 4,6 km/h (1 Bft)
06.01.2017 12:00 -6,3 C 85 % 1040,6 hPa 0,0 l/m 1,6 km/h (1 Bft) O-NO -8,4 C -6,3 C 3,6 km/h (1 Bft)
06.01.2017 13:00 -5,9 C 80 % 1039,9 hPa 0,3 l/m 2,8 km/h (1 Bft) W-NW -8,8 C -5,9 C 7,2 km/h (2 Bft)
06.01.2017 14:00 -5,7 C 75 % 1039,7 hPa 0,3 l/m 3,1 km/h (1 Bft) S-SW -9,4 C -5,7 C 7,9 km/h (2 Bft)
06.01.2017 15:00 -5,9 C 76 % 1040,1 hPa 0,0 l/m 2,5 km/h (1 Bft) W -9,4 C -5,9 C 7,1 km/h (2 Bft)
06.01.2017 16:00 -7,5 C 81 % 1040,5 hPa 0,0 l/m 1,7 km/h (1 Bft) SW -10,2 C -7,5 C 5,3 km/h (1 Bft)
06.01.2017 17:00 -10,1 C 86 % 1040,9 hPa 0,0 l/m 0,4 km/h (0 Bft) S-SW -11,9 C -10,1 C 1,5 km/h (1 Bft)
06.01.2017 18:00 -11,7 C 89 % 1040,9 hPa 0,0 l/m 0,0 km/h (0 Bft) S-SW -13,2 C -11,7 C 0,5 km/h (0 Bft)
06.01.2017 19:00 -13,7 C 89 % 1040,6 hPa 0,0 l/m 0,0 km/h (0 Bft) S-SW -15,1 C -13,7 C 0,4 km/h (0 Bft)
06.01.2017 20:00 -15,3 C 89 % 1040,5 hPa 0,0 l/m 0,0 km/h (0 Bft) S-SW -16,7 C -15,3 C 0,0 km/h (0 Bft)
06.01.2017 21:00 -15,9 C 89 % 1040,7 hPa 0,0 l/m 0,0 km/h (0 Bft) S-SW -17,2 C -15,9 C 0,3 km/h (0 Bft)
06.01.2017 22:00 -16,6 C 88 % 1040,7 hPa 0,0 l/m 0,0 km/h (0 Bft) S-SW -18,1 C -16,6 C 0,5 km/h (0 Bft)
06.01.2017 23:00 -17,5 C 88 % 1040,6 hPa 0,0 l/m 0,0 km/h (0 Bft) S-SW -19,0 C -17,5 C 0,4 km/h (0 Bft)
07.01.2017 00:00 -18,1 C 88 % 1040,3 hPa 0,0 l/m 0,0 km/h (0 Bft) S-SW -19,6 C -18,1 C 0,4 km/h (0 Bft)
07.01.2017 01:00 -18,8 C 88 % 1040,0 hPa 0,0 l/m 0,1 km/h (0 Bft) S-SW -20,3 C -18,8 C 0,5 km/h (0 Bft)
07.01.2017 02:00 -19,2 C 87 % 1039,7 hPa 0,0 l/m 0,0 km/h (0 Bft) S-SW -20,8 C -19,2 C 0,1 km/h (0 Bft)
07.01.2017 03:00 -19,6 C 87 % 1039,6 hPa 0,0 l/m 0,0 km/h (0 Bft) S-SW -21,2 C -19,6 C 0,3 km/h (0 Bft)
07.01.2017 04:00 -19,4 C 88 % 1039,2 hPa 0,0 l/m 0,3 km/h (0 Bft) S-SW -20,9 C -19,4 C 1,1 km/h (0 Bft)
07.01.2017 05:00 -18,4 C 88 % 1039,1 hPa 0,0 l/m 0,1 km/h (0 Bft) S-SW -19,8 C -18,4 C 1,1 km/h (1 Bft)
07.01.2017 06:00 -17,6 C 89 % 1039,0 hPa 0,0 l/m 0,1 km/h (0 Bft) S-SW -19,0 C -17,6 C 1,3 km/h (1 Bft)
07.01.2017 07:00 -16,5 C 89 % 1038,8 hPa 0,0 l/m 0,1 km/h (0 Bft) S-SW -17,9 C -16,5 C 1,1 km/h (0 Bft)
07.01.2017 08:00 -15,4 C 90 % 1038,6 hPa 0,0 l/m 0,1 km/h (0 Bft) S-SW -16,7 C -15,4 C 1,1 km/h (0 Bft)
07.01.2017 09:00 -13,8 C 90 % 1038,4 hPa 0,0 l/m 0,3 km/h (0 Bft) S-SW -15,1 C -13,8 C 1,6 km/h (1 Bft)
07.01.2017 10:00 -11,2 C 90 % 1038,0 hPa 0,0 l/m 0,8 km/h (0 Bft) S-SW -12,5 C -11,2 C 2,4 km/h (1 Bft)
07.01.2017 11:00 -8,3 C 86 % 1037,9 hPa 0,0 l/m 1,0 km/h (0 Bft) O-NO -10,2 C -8,3 C 3,4 km/h (1 Bft)
07.01.2017 12:00 -6,8 C 84 % 1037,3 hPa 0,0 l/m 1,6 km/h (1 Bft) O-NO -9,0 C -6,8 C 3,1 km/h (1 Bft)
07.01.2017 13:00 -5,3 C 79 % 1036,4 hPa 0,0 l/m 1,9 km/h (1 Bft) NO -8,3 C -5,3 C 3,5 km/h (1 Bft)
07.01.2017 14:00 -4,8 C 76 % 1036,0 hPa 0,0 l/m 1,8 km/h (1 Bft) NO -8,4 C -4,8 C 3,3 km/h (1 Bft)
07.01.2017 15:00 -4,9 C 75 % 1035,8 hPa 0,0 l/m 1,9 km/h (1 Bft) NO -8,6 C -4,9 C 3,5 km/h (1 Bft)
07.01.2017 16:00 -5,3 C 79 % 1035,9 hPa 0,0 l/m 0,6 km/h (0 Bft) N -8,4 C -5,3 C 1,6 km/h (1 Bft)
07.01.2017 17:00 -5,8 C 81 % 1035,7 hPa 0,0 l/m 1,5 km/h (1 Bft) NO -8,4 C -5,8 C 3,0 km/h (1 Bft)
07.01.2017 18:00 -5,9 C 84 % 1035,4 hPa 0,0 l/m 2,4 km/h (1 Bft) N-NO -8,2 C -5,9 C 5,0 km/h (1 Bft)
07.01.2017 19:00 -5,8 C 82 % 1034,9 hPa 0,0 l/m 2,8 km/h (1 Bft) O-NO -8,3 C -5,8 C 6,4 km/h (2 Bft)
07.01.2017 20:00 -5,4 C 81 % 1034,5 hPa 0,0 l/m 3,3 km/h (1 Bft) O-NO -8,1 C -5,4 C 8,2 km/h (2 Bft)
07.01.2017 21:00 -5,3 C 86 % 1034,1 hPa 0,0 l/m 2,4 km/h (1 Bft) O-NO -7,2 C -5,3 C 6,6 km/h (2 Bft)
07.01.2017 22:00 -5,3 C 85 % 1033,4 hPa 0,0 l/m 3,8 km/h (1 Bft) O-NO -7,4 C -5,3 C 9,1 km/h (2 Bft)
07.01.2017 23:00 -5,0 C 90 % 1033,0 hPa 0,0 l/m 2,4 km/h (1 Bft) O-NO -6,3 C -5,0 C 7,2 km/h (2 Bft)
08.01.2017 00:00 -4,8 C 91 % 1032,7 hPa 0,0 l/m 2,7 km/h (1 Bft) NO -6,0 C -4,8 C 6,0 km/h (2 Bft)
08.01.2017 01:00 -4,4 C 92 % 1032,5 hPa 0,0 l/m 2,0 km/h (1 Bft) O -5,5 C -4,4 C 5,5 km/h (2 Bft)
08.01.2017 02:00 -4,4 C 92 % 1032,1 hPa 0,0 l/m 2,8 km/h (1 Bft) O-NO -5,5 C -4,4 C 7,8 km/h (2 Bft)
08.01.2017 03:00 -4,3 C 92 % 1031,8 hPa 0,0 l/m 3,0 km/h (1 Bft) O -5,4 C -4,3 C 7,6 km/h (2 Bft)
08.01.2017 04:00 -4,0 C 92 % 1031,4 hPa 0,0 l/m 2,3 km/h (1 Bft) O-NO -5,1 C -4,0 C 6,4 km/h (2 Bft)
08.01.2017 05:00 -3,8 C 92 % 1031,4 hPa 0,0 l/m 3,2 km/h (1 Bft) O -4,9 C -3,8 C 7,3 km/h (2 Bft)
08.01.2017 06:00 -3,7 C 92 % 1031,3 hPa 0,0 l/m 2,8 km/h (1 Bft) O-NO -4,8 C -3,7 C 6,5 km/h (2 Bft)
08.01.2017 07:00 -3,6 C 92 % 1031,3 hPa 0,0 l/m 3,1 km/h (1 Bft) O-NO -4,7 C -3,6 C 7,3 km/h (2 Bft)
08.01.2017 08:00 -3,4 C 92 % 1031,6 hPa 0,0 l/m 2,1 km/h (1 Bft) O -4,5 C -3,4 C 6,2 km/h (2 Bft)
08.01.2017 09:00 -3,0 C 92 % 1031,9 hPa 0,0 l/m 3,0 km/h (1 Bft) O-NO -4,2 C -3,0 C 7,9 km/h (2 Bft)
08.01.2017 10:00 -2,6 C 91 % 1032,0 hPa 0,0 l/m 2,7 km/h (1 Bft) O-NO -3,9 C -2,6 C 6,7 km/h (2 Bft)
08.01.2017 11:00 -1,9 C 90 % 1032,2 hPa 0,0 l/m 2,2 km/h (1 Bft) NO -3,3 C -1,9 C 5,4 km/h (2 Bft)
08.01.2017 12:00 -1,5 C 89 % 1032,0 hPa 0,0 l/m 3,2 km/h (1 Bft) O-NO -3,0 C -1,5 C 6,9 km/h (2 Bft)
08.01.2017 13:00 -1,0 C 89 % 1031,6 hPa 0,0 l/m 2,6 km/h (1 Bft) O-NO -2,6 C -1,0 C 6,3 km/h (2 Bft)
08.01.2017 14:00 -0,8 C 90 % 1031,5 hPa 0,3 l/m 2,5 km/h (1 Bft) O-NO -2,3 C -0,8 C 6,5 km/h (2 Bft)
08.01.2017 15:00 -1,0 C 91 % 1031,8 hPa 0,0 l/m 2,3 km/h (1 Bft) O-NO -2,4 C -1,0 C 6,0 km/h (2 Bft)
08.01.2017 16:00 -1,5 C 92 % 1032,1 hPa 0,0 l/m 2,0 km/h (1 Bft) O-NO -2,5 C -1,5 C 4,8 km/h (1 Bft)
08.01.2017 17:00 -1,9 C 94 % 1032,4 hPa 0,0 l/m 1,1 km/h (1 Bft) O-NO -2,8 C -1,9 C 2,9 km/h (1 Bft)
08.01.2017 18:00 -2,1 C 94 % 1032,4 hPa 0,0 l/m 1,2 km/h (1 Bft) O-NO -2,9 C -2,1 C 3,2 km/h (1 Bft)
08.01.2017 19:00 -2,2 C 95 % 1032,4 hPa 0,0 l/m 0,2 km/h (0 Bft) NO -2,9 C -2,2 C 1,1 km/h (0 Bft)
08.01.2017 20:00 -2,4 C 95 % 1032,3 hPa 0,0 l/m 0,0 km/h (0 Bft) NO -3,1 C -2,4 C 0,1 km/h (0 Bft)
08.01.2017 21:00 -2,8 C 95 % 1032,3 hPa 0,0 l/m 0,0 km/h (0 Bft) NO -3,5 C -2,8 C 0,5 km/h (0 Bft)
08.01.2017 22:00 -3,1 C 95 % 1032,3 hPa 0,0 l/m 0,1 km/h (0 Bft) NO -3,8 C -3,1 C 0,7 km/h (0 Bft)
08.01.2017 23:00 -3,1 C 96 % 1032,2 hPa 0,0 l/m 0,0 km/h (0 Bft) NO -3,7 C -3,1 C 0,1 km/h (0 Bft)
Min-Datum _ 07.01.17 03.01.17 04.01.17 - 08.01.17 - 07.01.17 07.01.17 08.01.17
_ Min-Zeit 04:00 13:16 13:50 - 23:00 - 04:05 04:00 23:00
Minimum _ -19,7 C 69 % 1017,4 hPa - 0,0 km/h (0 Bft) - -21,3 C -19,7 C 0,0 km/h (0 Bft)
Max-Datum _ 03.01.17 08.01.17 06.01.17 05.01.17 04.01.17 - 03.01.17 03.01.17 04.01.17
_ Max-Zeit 13:01 23:15 10:25 15:05 12:11 - 13:03 13:01 10:45
Maximum _ 2,8 C 96 % 1041,7 hPa 1,3 l/m 12,9 km/h
O-NO (3 Bft)
- -1,2 C 2,8 C 35,4 km/h
O-NO (5 Bft)
Durchschnitt _ -5,1 C 90 % 1029,6 hPa #4,3 l/m 2,1 km/h (1 Bft) O-NO -6,4 C -5,2 C 5,3 km/h (1 Bft)